Time;durP1;ratioP1;P1;durP2;ratioP2;P2;SDS_P1;SDS_P2;PMS_P1;PMS_P2;Temp;Humidity;BMP_temperature;BMP_pressure;BME280_temperature;BME280_humidity;BME280_pressure;Samples;Min_cycle;Max_cycle;Signal;HPM_P1;HPM_P2
2022/11/24 00:01:05;;;;;;;55.83;34.70;;;4.70;99.90;;;;;;5001562;28;20030;-70
2022/11/24 00:03:31;;;;;;;60.90;34.58;;;4.70;99.90;;;;;;5002150;28;20041;-69
2022/11/24 00:06:06;;;;;;;58.47;36.75;;;4.70;99.90;;;;;;5001973;28;20024;-69
2022/11/24 00:08:32;;;;;;;58.83;33.10;;;4.70;99.90;;;;;;5003371;28;20033;-69
2022/11/24 00:11:06;;;;;;;62.05;35.78;;;4.80;99.90;;;;;;5003125;28;20042;-69
2022/11/24 00:13:33;;;;;;;57.05;34.90;;;4.70;99.90;;;;;;5004583;28;20033;-69
2022/11/24 00:16:10;;;;;;;63.45;35.20;;;4.80;99.90;;;;;;5001570;28;20052;-69
2022/11/24 00:18:36;;;;;;;60.38;36.10;;;4.70;99.90;;;;;;5004116;28;20030;-69
2022/11/24 00:21:04;;;;;;;62.03;36.35;;;4.80;99.90;;;;;;5004364;28;20029;-69
2022/11/24 00:23:29;;;;;;;60.70;35.45;;;4.70;99.90;;;;;;5001338;28;20029;-69
2022/11/24 00:26:03;;;;;;;59.38;34.90;;;4.70;99.90;;;;;;5002261;28;20026;-66
2022/11/24 00:28:29;;;;;;;63.05;37.60;;;4.80;99.90;;;;;;5001527;28;20033;-67
2022/11/24 00:30:54;;;;;;;58.35;35.53;;;4.80;99.90;;;;;;5001458;28;20400;-67
2022/11/24 00:33:20;;;;;;;59.92;35.25;;;4.80;99.90;;;;;;5003610;28;20045;-67
2022/11/24 00:35:54;;;;;;;65.43;34.85;;;4.70;99.90;;;;;;5003790;28;20056;-67
2022/11/24 00:38:19;;;;;;;52.55;32.58;;;4.80;99.90;;;;;;5001858;28;20038;-67
2022/11/24 00:40:45;;;;;;;56.33;34.72;;;4.80;99.90;;;;;;5001953;28;20493;-68
2022/11/24 00:43:11;;;;;;;58.55;36.05;;;4.80;99.90;;;;;;5002324;28;20037;-67
2022/11/24 00:45:37;;;;;;;59.55;34.58;;;4.80;99.90;;;;;;5000465;28;20034;-68
2022/11/24 00:48:03;;;;;;;55.22;35.17;;;4.80;99.90;;;;;;4996908;28;20032;-67
2022/11/24 00:50:29;;;;;;;56.10;33.67;;;4.80;99.90;;;;;;5002531;28;20496;-67
2022/11/24 00:52:55;;;;;;;53.55;33.33;;;4.80;99.90;;;;;;5000729;28;20324;-67
2022/11/24 00:55:21;;;;;;;62.88;35.58;;;4.80;99.90;;;;;;5003486;28;20397;-67
2022/11/24 00:57:47;;;;;;;66.00;37.03;;;4.80;99.90;;;;;;5000165;28;20036;-67
2022/11/24 01:00:13;;;;;;;71.20;36.50;;;4.80;99.90;;;;;;5002832;28;20038;-67
2022/11/24 01:02:39;;;;;;;54.78;34.55;;;4.70;99.90;;;;;;5001041;28;20026;-67
2022/11/24 01:05:05;;;;;;;64.22;35.63;;;4.70;99.90;;;;;;5000672;28;20033;-67
2022/11/24 01:07:31;;;;;;;55.45;32.25;;;4.70;99.90;;;;;;5001245;28;20037;-67
2022/11/24 01:09:57;;;;;;;60.25;34.60;;;4.70;99.90;;;;;;4999321;28;20026;-67
2022/11/24 01:12:23;;;;;;;60.30;33.85;;;4.70;99.90;;;;;;4999934;28;20136;-67
2022/11/24 01:14:48;;;;;;;63.30;32.30;;;4.70;99.90;;;;;;5003146;28;20042;-67
2022/11/24 01:17:14;;;;;;;74.35;34.42;;;4.70;99.90;;;;;;5001667;28;20056;-67
2022/11/24 01:19:40;;;;;;;53.17;32.15;;;4.70;99.90;;;;;;5005241;28;20038;-67
2022/11/24 01:22:06;;;;;;;54.97;32.70;;;4.70;99.90;;;;;;5003178;28;20022;-67
2022/11/24 01:24:32;;;;;;;71.93;32.63;;;4.70;99.90;;;;;;5000868;28;20433;-67
2022/11/24 01:26:58;;;;;;;54.47;31.40;;;4.70;99.90;;;;;;4999416;28;20037;-67
2022/11/24 01:29:24;;;;;;;57.33;34.53;;;4.70;99.90;;;;;;4999026;28;20036;-67
2022/11/24 01:31:51;;;;;;;55.47;33.60;;;4.80;99.90;;;;;;5001088;28;20278;-67
2022/11/24 01:34:17;;;;;;;62.15;33.28;;;4.80;99.90;;;;;;5002876;28;20145;-67
2022/11/24 01:36:43;;;;;;;61.25;32.88;;;4.80;99.90;;;;;;5001600;28;20116;-67
2022/11/24 01:39:09;;;;;;;57.33;31.88;;;4.80;99.90;;;;;;4999736;28;20025;-67
2022/11/24 01:41:35;;;;;;;58.67;33.15;;;4.80;99.90;;;;;;5001418;28;20026;-67
2022/11/24 01:44:20;;;;;;;83.45;36.33;;;4.80;99.90;;;;;;5001674;28;20088;-67
2022/11/24 01:46:50;;;;;;;55.58;33.05;;;4.80;99.90;;;;;;5001268;28;20026;-67
2022/11/24 01:49:20;;;;;;;72.13;35.47;;;4.70;99.90;;;;;;5002504;28;20042;-67
2022/11/24 01:52:10;;;;;;;51.92;30.58;;;4.80;99.90;;;;;;4999548;28;20385;-67
2022/11/24 01:54:39;;;;;;;58.47;31.73;;;4.70;99.90;;;;;;5000366;28;20145;-67
2022/11/24 01:57:16;;;;;;;49.05;32.22;;;4.70;99.90;;;;;;5002531;28;20065;-67
2022/11/24 01:59:45;;;;;;;56.30;31.58;;;4.70;99.90;;;;;;5003627;28;20030;-67
2022/11/24 02:02:12;;;;;;;53.10;33.10;;;4.70;99.90;;;;;;5002049;28;20022;-67
2022/11/24 02:04:38;;;;;;;67.88;33.75;;;4.70;99.90;;;;;;4999152;28;20041;-67
2022/11/24 02:07:06;;;;;;;52.63;31.52;;;4.70;99.90;;;;;;5004143;28;20037;-67
2022/11/24 02:09:38;;;;;;;65.57;33.85;;;4.80;99.90;;;;;;5000158;28;20083;-67
2022/11/24 02:12:05;;;;;;;52.90;31.15;;;4.70;99.90;;;;;;5002556;28;20026;-66
2022/11/24 02:14:33;;;;;;;62.25;32.55;;;4.70;99.90;;;;;;5000293;28;20052;-66
2022/11/24 02:16:59;;;;;;;54.17;32.83;;;4.70;99.90;;;;;;5000465;28;20084;-66
2022/11/24 02:19:40;;;;;;;56.70;32.13;;;4.70;99.90;;;;;;5001398;28;20030;-67
2022/11/24 02:22:28;;;;;;;57.03;32.50;;;4.80;99.90;;;;;;5004035;28;20018;-66
2022/11/24 02:25:22;;;;;;;52.22;31.10;;;4.80;99.90;;;;;;5004777;28;20049;-66
2022/11/24 02:27:48;;;;;;;53.00;30.95;;;4.80;99.90;;;;;;5003153;28;20508;-66
2022/11/24 02:30:14;;;;;;;52.80;32.08;;;4.80;99.90;;;;;;5001493;28;20034;-66
2022/11/24 02:32:41;;;;;;;72.65;33.35;;;4.80;99.90;;;;;;5003224;28;20026;-66
2022/11/24 02:35:09;;;;;;;76.93;32.67;;;4.80;99.90;;;;;;5005698;28;20084;-66
2022/11/24 02:37:34;;;;;;;57.03;32.35;;;4.80;99.90;;;;;;5003969;28;20085;-66
2022/11/24 02:40:00;;;;;;;55.92;31.50;;;4.70;99.90;;;;;;5001351;28;20471;-66
2022/11/24 02:42:33;;;;;;;49.83;31.38;;;4.70;99.90;;;;;;5004123;28;20572;-66
2022/11/24 02:45:00;;;;;;;61.20;29.88;;;4.70;99.90;;;;;;5004705;28;20108;-66
2022/11/24 02:47:26;;;;;;;53.92;30.55;;;4.70;99.90;;;;;;5003658;28;20537;-66
2022/11/24 02:49:52;;;;;;;54.42;31.23;;;4.60;99.90;;;;;;5002922;28;20060;-66
2022/11/24 02:52:18;;;;;;;60.63;30.13;;;4.70;99.90;;;;;;5005411;28;20100;-66
2022/11/24 02:54:43;;;;;;;52.03;29.80;;;4.70;99.90;;;;;;5005324;28;20038;-66
2022/11/24 02:57:10;;;;;;;50.30;31.35;;;4.70;99.90;;;;;;5005919;28;20434;-66
2022/11/24 02:59:36;;;;;;;67.43;32.25;;;4.70;99.90;;;;;;5002348;28;20540;-67
2022/11/24 03:02:02;;;;;;;50.42;33.33;;;4.80;99.90;;;;;;5003720;28;20026;-67
2022/11/24 03:04:29;;;;;;;63.85;33.25;;;4.70;99.90;;;;;;5003866;28;20022;-67
2022/11/24 03:07:01;;;;;;;55.78;30.45;;;4.70;99.90;;;;;;5002288;28;20030;-67
2022/11/24 03:09:27;;;;;;;65.28;31.60;;;4.70;99.90;;;;;;5004675;28;20038;-67
2022/11/24 03:11:52;;;;;;;64.88;32.03;;;4.70;99.90;;;;;;5004611;28;20077;-67
2022/11/24 03:14:18;;;;;;;65.70;31.80;;;4.70;99.90;;;;;;4999532;28;20244;-68
2022/11/24 03:16:44;;;;;;;52.03;32.25;;;4.60;99.90;;;;;;4999627;28;20974;-67
2022/11/24 03:19:09;;;;;;;67.07;29.90;;;4.60;99.90;;;;;;5006127;28;20441;-67
2022/11/24 03:21:35;;;;;;;49.42;29.70;;;4.60;99.90;;;;;;5001740;28;20532;-66
2022/11/24 03:24:01;;;;;;;47.97;27.65;;;4.60;99.90;;;;;;5007596;28;20036;-66
2022/11/24 03:26:27;;;;;;;56.40;29.85;;;4.60;99.90;;;;;;5013468;28;20116;-67
2022/11/24 03:28:55;;;;;;;41.33;25.38;;;4.60;99.90;;;;;;5013615;28;20037;-67
2022/11/24 03:31:21;;;;;;;52.53;29.02;;;4.70;99.90;;;;;;5011715;28;20037;-67
2022/11/24 03:33:47;;;;;;;42.67;25.30;;;4.70;99.90;;;;;;5013250;28;20033;-67
2022/11/24 03:36:13;;;;;;;42.70;25.98;;;4.60;99.90;;;;;;5012919;28;20041;-67
2022/11/24 03:38:38;;;;;;;41.10;25.65;;;4.60;99.90;;;;;;5028956;28;20018;-66
2022/11/24 03:41:04;;;;;;;46.72;28.58;;;4.60;99.90;;;;;;5008319;28;20180;-67
2022/11/24 03:43:31;;;;;;;45.58;28.25;;;4.60;99.90;;;;;;5004877;28;20030;-67
2022/11/24 03:45:59;;;;;;;48.33;28.45;;;4.70;99.90;;;;;;5003966;28;20057;-67
2022/11/24 03:48:24;;;;;;;42.10;26.95;;;4.70;99.90;;;;;;5001834;28;20034;-67
2022/11/24 03:50:58;;;;;;;47.35;28.25;;;4.70;99.90;;;;;;5000482;28;20076;-67
2022/11/24 03:53:26;;;;;;;41.95;26.75;;;4.70;99.90;;;;;;5002317;28;20021;-67
2022/11/24 03:55:52;;;;;;;48.47;26.92;;;4.70;99.90;;;;;;5001916;28;20041;-66
2022/11/24 03:58:19;;;;;;;43.63;27.15;;;4.70;99.90;;;;;;5001685;28;20032;-67
2022/11/24 04:00:48;;;;;;;48.17;27.65;;;4.80;99.90;;;;;;5004357;28;20030;-67
2022/11/24 04:03:14;;;;;;;42.15;25.33;;;4.70;99.90;;;;;;5001872;28;20112;-67
2022/11/24 04:05:40;;;;;;;46.75;27.90;;;4.70;99.90;;;;;;5002457;28;20429;-67
2022/11/24 04:08:05;;;;;;;43.15;24.40;;;4.70;99.90;;;;;;5004668;28;20030;-66
2022/11/24 04:10:34;;;;;;;46.72;26.85;;;4.70;99.90;;;;;;5001640;28;20060;-67
2022/11/24 04:13:00;;;;;;;43.65;25.67;;;4.70;99.90;;;;;;5002557;28;20072;-66
2022/11/24 04:15:27;;;;;;;61.70;29.95;;;4.70;99.90;;;;;;5002185;28;20040;-66
2022/11/24 04:17:54;;;;;;;42.03;25.77;;;4.60;99.90;;;;;;5007296;28;20028;-66
2022/11/24 04:20:20;;;;;;;60.72;28.95;;;4.70;99.90;;;;;;5001926;28;20036;-66
2022/11/24 04:22:46;;;;;;;48.00;26.35;;;4.70;99.90;;;;;;5000183;28;20038;-66
2022/11/24 04:25:11;;;;;;;52.88;27.10;;;4.60;99.90;;;;;;5000388;28;22194;-67
2022/11/24 04:27:38;;;;;;;44.63;27.35;;;4.60;99.90;;;;;;5002913;28;20216;-66
2022/11/24 04:30:06;;;;;;;47.03;27.60;;;4.70;99.90;;;;;;4999134;28;20041;-67
2022/11/24 04:32:31;;;;;;;55.78;26.77;;;4.60;99.90;;;;;;5001455;28;20140;-67
2022/11/24 04:34:57;;;;;;;64.47;28.52;;;4.60;99.90;;;;;;5001765;28;20053;-67
2022/11/24 04:37:23;;;;;;;48.20;26.85;;;4.60;99.90;;;;;;5001028;28;20026;-66
2022/11/24 04:39:49;;;;;;;45.08;26.00;;;4.60;99.90;;;;;;5002178;28;20030;-66
2022/11/24 04:42:15;;;;;;;43.67;24.77;;;4.60;99.90;;;;;;5000214;28;20030;-66
2022/11/24 04:44:41;;;;;;;44.42;25.33;;;4.60;99.90;;;;;;4999257;28;20034;-66
2022/11/24 04:47:14;;;;;;;39.40;24.73;;;4.60;99.90;;;;;;5000913;28;20108;-66
2022/11/24 04:49:40;;;;;;;42.67;25.38;;;4.60;99.90;;;;;;4999584;28;20034;-66
2022/11/24 04:52:06;;;;;;;50.85;27.92;;;4.60;99.90;;;;;;5001814;28;20064;-66
2022/11/24 04:54:31;;;;;;;43.53;25.27;;;4.60;99.90;;;;;;4999012;28;20046;-66
2022/11/24 04:56:58;;;;;;;43.63;26.45;;;4.60;99.90;;;;;;5000524;28;20512;-66
2022/11/24 04:59:24;;;;;;;44.50;25.67;;;4.60;99.90;;;;;;4999638;28;20033;-66
2022/11/24 05:01:50;;;;;;;45.47;24.67;;;4.60;99.90;;;;;;5002020;28;20033;-66
2022/11/24 05:04:15;;;;;;;47.47;26.50;;;4.60;99.90;;;;;;5000753;28;20022;-66
2022/11/24 05:06:41;;;;;;;56.63;25.70;;;4.60;99.90;;;;;;5000829;28;20658;-66
2022/11/24 05:09:14;;;;;;;44.92;25.45;;;4.60;99.90;;;;;;5001329;28;20030;-66
2022/11/24 05:11:40;;;;;;;42.78;24.65;;;4.60;99.90;;;;;;5004317;28;20503;-66
2022/11/24 05:14:06;;;;;;;45.00;23.92;;;4.60;99.90;;;;;;5000483;28;20038;-67
2022/11/24 05:16:32;;;;;;;48.53;27.90;;;4.60;99.90;;;;;;5001376;28;20037;-66
2022/11/24 05:18:58;;;;;;;51.15;26.52;;;4.60;99.90;;;;;;4999974;28;20032;-66
2022/11/24 05:21:23;;;;;;;43.13;26.70;;;4.60;99.90;;;;;;5000736;28;20551;-66
2022/11/24 05:23:49;;;;;;;56.05;27.42;;;4.60;99.90;;;;;;5029480;28;20764;-66
2022/11/24 05:26:15;;;;;;;44.00;25.70;;;4.60;99.90;;;;;;5001180;28;20593;-66
2022/11/24 05:28:41;;;;;;;44.55;25.83;;;4.60;99.90;;;;;;4999899;28;20030;-74
2022/11/24 05:31:06;;;;;;;48.55;26.45;;;4.60;99.90;;;;;;5000651;28;20061;-75
2022/11/24 05:33:32;;;;;;;40.50;25.10;;;4.60;99.90;;;;;;5000748;28;20393;-70
2022/11/24 05:36:03;;;;;;;54.42;27.13;;;4.60;99.90;;;;;;4999464;28;20076;-69
2022/11/24 05:38:29;;;;;;;43.35;26.38;;;4.60;99.90;;;;;;5000517;28;20060;-67
2022/11/24 05:41:05;;;;;;;45.78;23.95;;;4.50;99.90;;;;;;5001366;28;20076;-69
2022/11/24 05:43:30;;;;;;;42.03;25.65;;;4.50;99.90;;;;;;4999537;28;20269;-68
2022/11/24 05:46:00;;;;;;;39.15;23.77;;;4.50;99.90;;;;;;5002360;28;20494;-68
2022/11/24 05:48:26;;;;;;;56.97;26.02;;;4.50;99.90;;;;;;4999949;28;20041;-69
2022/11/24 05:50:55;;;;;;;42.25;25.08;;;4.50;99.90;;;;;;4999574;28;22127;-68
2022/11/24 05:53:21;;;;;;;39.40;22.77;;;4.50;99.90;;;;;;5000463;28;20034;-68
2022/11/24 05:55:47;;;;;;;42.70;24.63;;;4.50;99.90;;;;;;5001225;28;20128;-68
2022/11/24 05:58:14;;;;;;;41.00;22.92;;;4.50;99.90;;;;;;5004015;28;20545;-69
2022/11/24 06:00:40;;;;;;;44.70;25.52;;;4.50;99.90;;;;;;5006957;28;20030;-68
2022/11/24 06:03:05;;;;;;;42.85;23.48;;;4.50;99.90;;;;;;5004248;28;20083;-68
2022/11/24 06:05:31;;;;;;;50.97;25.50;;;4.60;99.90;;;;;;5033990;28;20580;-68
2022/11/24 06:07:59;;;;;;;44.60;23.33;;;4.60;99.90;;;;;;5004081;28;20041;-69
2022/11/24 06:10:24;;;;;;;49.80;22.83;;;4.50;99.90;;;;;;5006594;28;20041;-69
2022/11/24 06:12:50;;;;;;;38.35;23.75;;;4.50;99.90;;;;;;5008281;28;20405;-69
2022/11/24 06:15:16;;;;;;;43.38;24.27;;;4.50;99.90;;;;;;5004948;28;20038;-69
2022/11/24 06:17:43;;;;;;;44.67;22.00;;;4.50;99.90;;;;;;5006688;28;20041;-69
2022/11/24 06:20:10;;;;;;;39.55;22.77;;;4.40;99.90;;;;;;5005232;28;20029;-68
2022/11/24 06:22:36;;;;;;;47.55;21.08;;;4.40;99.90;;;;;;5004630;28;20028;-68
2022/11/24 06:25:02;;;;;;;40.40;22.60;;;4.40;99.90;;;;;;5006236;28;20659;-69
2022/11/24 06:27:28;;;;;;;39.95;21.58;;;4.40;99.90;;;;;;5005308;28;20033;-69
2022/11/24 06:29:54;;;;;;;37.28;22.50;;;4.40;99.90;;;;;;5006366;28;20385;-68
2022/11/24 06:32:20;;;;;;;38.38;22.27;;;4.40;99.90;;;;;;5007480;28;20425;-68
2022/11/24 06:34:45;;;;;;;40.25;22.92;;;4.40;99.90;;;;;;5005580;28;20046;-69
2022/11/24 06:37:11;;;;;;;51.45;24.35;;;4.30;99.90;;;;;;5006766;28;20091;-69
2022/11/24 06:39:36;;;;;;;37.08;21.40;;;4.30;99.90;;;;;;5006110;28;20034;-69
2022/11/24 06:42:03;;;;;;;39.35;22.77;;;4.30;99.90;;;;;;5004339;28;20025;-69
2022/11/24 06:44:30;;;;;;;34.70;21.63;;;4.30;99.90;;;;;;5005508;28;20057;-69
2022/11/24 06:46:56;;;;;;;40.65;20.90;;;4.30;99.90;;;;;;5003739;28;20029;-69
2022/11/24 06:49:22;;;;;;;43.17;21.63;;;4.30;99.90;;;;;;5001242;28;20037;-69
2022/11/24 06:51:47;;;;;;;39.00;22.05;;;4.30;99.90;;;;;;5004478;28;20496;-70
2022/11/24 06:54:15;;;;;;;36.80;21.65;;;4.30;99.90;;;;;;5004281;28;20033;-69
2022/11/24 06:56:41;;;;;;;35.78;20.75;;;4.40;99.90;;;;;;5004288;28;20116;-69
2022/11/24 06:59:06;;;;;;;41.30;24.50;;;4.40;99.90;;;;;;5006286;28;20057;-69
2022/11/24 07:01:32;;;;;;;44.17;23.17;;;4.40;99.90;;;;;;5005191;28;20040;-69
2022/11/24 07:03:59;;;;;;;44.72;23.33;;;4.40;99.90;;;;;;5003612;28;20172;-69
2022/11/24 07:06:27;;;;;;;41.65;25.00;;;4.40;99.90;;;;;;5003122;28;20060;-69
2022/11/24 07:08:54;;;;;;;45.10;23.80;;;4.40;99.90;;;;;;5004314;28;20030;-69
2022/11/24 07:11:22;;;;;;;40.72;22.10;;;4.40;99.90;;;;;;5004054;28;20030;-69
2022/11/24 07:13:50;;;;;;;39.50;22.98;;;4.40;99.90;;;;;;5009014;28;20049;-69
2022/11/24 07:16:21;;;;;;;44.17;23.83;;;4.40;99.90;;;;;;5005785;28;20088;-69
2022/11/24 07:18:48;;;;;;;40.28;22.92;;;4.40;99.90;;;;;;5004027;28;20489;-69
2022/11/24 07:21:15;;;;;;;44.35;23.23;;;4.40;99.90;;;;;;5006148;28;20038;-69
2022/11/24 07:23:40;;;;;;;46.28;22.25;;;4.40;99.90;;;;;;5004616;28;20602;-69
2022/11/24 07:26:08;;;;;;;42.83;22.77;;;4.30;99.90;;;;;;5004697;28;20119;-69
2022/11/24 07:28:35;;;;;;;38.53;21.63;;;4.40;99.90;;;;;;5003362;28;20038;-69
2022/11/24 07:31:08;;;;;;;40.47;22.95;;;4.40;99.90;;;;;;5002985;28;20034;-70
2022/11/24 07:33:34;;;;;;;41.80;23.15;;;4.40;99.90;;;;;;5001756;28;20033;-68
2022/11/24 07:36:02;;;;;;;36.88;21.27;;;4.40;99.90;;;;;;5000418;28;20041;-69
2022/11/24 07:38:28;;;;;;;37.80;22.70;;;4.40;99.90;;;;;;5006033;28;20030;-70
2022/11/24 07:40:58;;;;;;;35.75;21.52;;;4.50;99.90;;;;;;5004220;28;20026;-70
2022/11/24 07:43:25;;;;;;;39.33;21.05;;;4.50;99.90;;;;;;5004037;28;20084;-70
2022/11/24 07:45:51;;;;;;;38.95;23.17;;;4.50;99.90;;;;;;5002804;28;20532;-71
2022/11/24 07:48:17;;;;;;;40.78;22.75;;;4.50;99.90;;;;;;5003402;28;20034;-71
2022/11/24 07:50:43;;;;;;;39.13;22.10;;;4.50;99.90;;;;;;5003927;28;20478;-71
2022/11/24 07:53:08;;;;;;;36.92;22.00;;;4.50;99.90;;;;;;5005160;28;20037;-71
2022/11/24 07:55:34;;;;;;;36.13;20.67;;;4.60;99.90;;;;;;5000337;28;20120;-71
2022/11/24 07:58:02;;;;;;;38.63;22.23;;;4.60;99.90;;;;;;5004599;28;20108;-71
2022/11/24 08:00:27;;;;;;;34.85;20.23;;;4.60;99.90;;;;;;5006563;28;20026;-71
2022/11/24 08:02:53;;;;;;;37.72;22.08;;;4.70;99.90;;;;;;5002985;28;20076;-70
2022/11/24 08:05:19;;;;;;;35.85;19.98;;;4.70;99.90;;;;;;5003282;28;20056;-70
2022/11/24 08:07:45;;;;;;;38.63;22.08;;;4.70;99.90;;;;;;5003175;28;20018;-71
2022/11/24 08:10:11;;;;;;;41.08;22.10;;;4.70;99.90;;;;;;5003841;28;20052;-71
2022/11/24 08:12:37;;;;;;;35.80;20.45;;;4.70;99.90;;;;;;5004473;28;20489;-71
2022/11/24 08:15:03;;;;;;;40.65;22.60;;;4.80;99.90;;;;;;5034363;28;20034;-70
2022/11/24 08:17:29;;;;;;;38.85;22.75;;;4.80;99.90;;;;;;5007581;28;20022;-69
2022/11/24 08:19:55;;;;;;;37.33;20.83;;;4.80;99.90;;;;;;5003132;28;20033;-71
2022/11/24 08:22:21;;;;;;;41.30;21.33;;;4.70;99.90;;;;;;5002728;28;20528;-71
2022/11/24 08:24:48;;;;;;;39.13;21.52;;;4.80;99.90;;;;;;5002949;28;20463;-71
2022/11/24 08:27:17;;;;;;;39.25;22.05;;;4.80;99.90;;;;;;5000744;28;20033;-72
2022/11/24 08:29:43;;;;;;;39.60;22.38;;;4.90;99.90;;;;;;5000827;28;20507;-74
2022/11/24 08:32:10;;;;;;;36.55;20.95;;;5.00;99.90;;;;;;5001857;28;20033;-71
2022/11/24 08:34:36;;;;;;;38.67;21.98;;;4.90;99.90;;;;;;4999918;28;20052;-71
2022/11/24 08:37:05;;;;;;;36.35;20.75;;;4.90;99.90;;;;;;4997634;28;20034;-70
2022/11/24 08:39:31;;;;;;;34.28;20.48;;;5.00;99.90;;;;;;4999519;28;20056;-71
2022/11/24 08:41:57;;;;;;;34.83;21.25;;;5.00;99.90;;;;;;5002458;28;20081;-71
2022/11/24 08:44:23;;;;;;;35.70;20.52;;;5.00;99.90;;;;;;5001678;28;20502;-71
2022/11/24 08:46:50;;;;;;;36.28;21.55;;;5.00;99.90;;;;;;5002830;28;20040;-71
2022/11/24 08:49:17;;;;;;;36.83;22.33;;;5.00;99.90;;;;;;5000903;28;20674;-71
2022/11/24 08:51:43;;;;;;;31.80;20.10;;;5.00;99.90;;;;;;5002283;28;20040;-72
2022/11/24 08:54:12;;;;;;;34.20;21.27;;;5.10;99.90;;;;;;5001497;28;20026;-73
2022/11/24 08:56:37;;;;;;;30.20;19.27;;;5.20;99.90;;;;;;5000141;28;20520;-72
2022/11/24 08:59:03;;;;;;;31.85;19.63;;;5.20;99.90;;;;;;4999780;28;20054;-73
2022/11/24 09:01:29;;;;;;;30.73;19.50;;;5.20;99.90;;;;;;4998808;28;20109;-72
2022/11/24 09:03:55;;;;;;;29.38;19.48;;;5.30;99.90;;;;;;5000105;28;20268;-72
2022/11/24 09:06:23;;;;;;;31.73;19.33;;;5.30;99.90;;;;;;4998337;28;20076;-75
2022/11/24 09:08:50;;;;;;;31.75;19.48;;;5.30;99.90;;;;;;4998152;28;20536;-72
2022/11/24 09:11:18;;;;;;;33.70;19.77;;;5.30;99.90;;;;;;5001576;28;20526;-72
2022/11/24 09:13:44;;;;;;;30.63;19.92;;;5.40;99.90;;;;;;5015226;28;20053;-71
2022/11/24 09:16:28;;;;;;;33.08;20.38;;;5.40;99.90;;;;;;5000527;28;20065;-73
2022/11/24 09:19:03;;;;;;;32.22;19.70;;;5.40;99.90;;;;;;5000787;28;20034;-71
2022/11/24 09:21:30;;;;;;;35.85;22.38;;;5.50;99.90;;;;;;5002190;28;20034;-71
2022/11/24 09:23:56;;;;;;;37.40;21.85;;;5.50;99.90;;;;;;5002575;28;20117;-72
2022/11/24 09:26:28;;;;;;;31.55;20.20;;;5.50;99.90;;;;;;4995473;28;20033;-72
2022/11/24 09:28:55;;;;;;;34.25;21.77;;;5.50;99.90;;;;;;5001807;28;20025;-70
2022/11/24 09:31:23;;;;;;;31.73;20.50;;;5.60;99.90;;;;;;5001283;28;20026;-71
2022/11/24 09:33:49;;;;;;;39.00;22.85;;;5.60;99.90;;;;;;4997809;28;20060;-71
2022/11/24 09:36:15;;;;;;;34.35;21.00;;;5.60;99.90;;;;;;4996013;28;20128;-71
2022/11/24 09:38:41;;;;;;;33.88;20.92;;;5.60;99.90;;;;;;4997222;28;20121;-71
2022/11/24 09:41:48;;;;;;;38.42;22.35;;;5.70;99.90;;;;;;4998181;28;20025;-71
2022/11/24 09:44:29;;;;;;;34.58;22.55;;;5.70;99.90;;;;;;5002719;28;20496;-71
2022/11/24 09:47:08;;;;;;;31.42;20.45;;;5.70;99.90;;;;;;5000856;28;20402;-71
2022/11/24 09:49:56;;;;;;;35.80;21.92;;;5.80;99.90;;;;;;4997489;28;20053;-71
2022/11/24 09:52:40;;;;;;;32.20;21.05;;;5.80;99.90;;;;;;4995678;28;20521;-71
2022/11/24 09:55:20;;;;;;;33.25;21.77;;;5.80;99.90;;;;;;4996590;28;20128;-71
2022/11/24 09:57:53;;;;;;;35.55;20.52;;;5.90;99.90;;;;;;5011223;28;20515;-71
2022/11/24 10:00:19;;;;;;;33.38;21.83;;;5.90;99.90;;;;;;4994542;28;20121;-71
2022/11/24 10:02:48;;;;;;;33.17;21.23;;;6.00;99.90;;;;;;4998373;28;20048;-69
2022/11/24 10:05:13;;;;;;;36.83;21.10;;;6.00;99.90;;;;;;4997728;28;20152;-70
2022/11/24 10:07:52;;;;;;;32.40;21.42;;;6.00;99.90;;;;;;4996874;28;20052;-70
2022/11/24 10:10:39;;;;;;;35.05;21.35;;;6.10;99.90;;;;;;4999122;28;20030;-70
2022/11/24 10:13:27;;;;;;;35.13;21.85;;;6.10;99.90;;;;;;4997694;28;21666;-70
2022/11/24 10:16:10;;;;;;;34.65;21.88;;;6.10;99.90;;;;;;4993603;28;20116;-70
2022/11/24 10:19:08;;;;;;;34.50;23.02;;;6.20;99.90;;;;;;4997632;28;20516;-71
2022/11/24 10:21:54;;;;;;;35.75;22.60;;;6.20;99.90;;;;;;4995850;28;20334;-70
2022/11/24 10:24:50;;;;;;;36.65;22.58;;;6.20;99.90;;;;;;4996761;28;20489;-70
2022/11/24 10:27:37;;;;;;;36.08;23.23;;;6.30;99.90;;;;;;5010839;28;20034;-70
2022/11/24 10:30:15;;;;;;;37.33;22.17;;;6.30;99.90;;;;;;4999593;28;20481;-70
2022/11/24 10:33:00;;;;;;;28.85;19.35;;;6.40;99.90;;;;;;5014790;28;20042;-70
2022/11/24 10:35:38;;;;;;;31.88;19.58;;;6.40;99.90;;;;;;5000246;28;20494;-71
2022/11/24 10:38:19;;;;;;;33.45;20.38;;;6.50;99.90;;;;;;4996901;28;20026;-71
2022/11/24 10:40:54;;;;;;;34.63;22.58;;;6.50;99.90;;;;;;4999717;28;20516;-71
2022/11/24 10:43:20;;;;;;;29.85;19.50;;;6.60;99.90;;;;;;5001386;28;20048;-71
2022/11/24 10:45:46;;;;;;;30.23;20.00;;;6.60;99.90;;;;;;5003310;28;20042;-71
2022/11/24 10:48:20;;;;;;;29.95;19.33;;;6.70;99.90;;;;;;5003518;28;20040;-72
2022/11/24 10:50:45;;;;;;;34.47;20.47;;;6.80;99.90;;;;;;5004788;28;20109;-71
2022/11/24 10:53:29;;;;;;;31.35;21.35;;;6.80;99.90;;;;;;5001627;28;20026;-71
2022/11/24 10:55:55;;;;;;;33.63;20.70;;;6.80;99.90;;;;;;5003422;28;20088;-71
2022/11/24 10:58:22;;;;;;;33.53;20.25;;;6.80;99.90;;;;;;5003473;28;20034;-70
2022/11/24 11:00:48;;;;;;;31.95;20.73;;;6.80;99.90;;;;;;5000898;28;20033;-70
2022/11/24 11:03:23;;;;;;;30.73;19.55;;;6.80;99.90;;;;;;5004268;28;20535;-72
2022/11/24 11:06:11;;;;;;;31.15;21.23;;;6.80;99.90;;;;;;5002204;28;20038;-71
2022/11/24 11:08:37;;;;;;;30.63;18.95;;;6.90;99.90;;;;;;5002449;28;20034;-69
2022/11/24 11:11:20;;;;;;;33.08;21.35;;;6.90;99.90;;;;;;5008128;28;20030;-68
2022/11/24 11:13:51;;;;;;;28.63;18.92;;;6.90;99.90;;;;;;5002729;28;20489;-68
2022/11/24 11:16:49;;;;;;;31.33;20.92;;;6.90;99.90;;;;;;5000891;28;20092;-68
2022/11/24 11:19:33;;;;;;;35.17;21.83;;;7.00;99.90;;;;;;4998378;28;20137;-66
2022/11/24 11:22:31;;;;;;;29.33;20.25;;;7.00;99.90;;;;;;5002164;28;20269;-67
2022/11/24 11:25:06;;;;;;;34.55;22.25;;;7.00;99.90;;;;;;5001176;28;20065;-66
2022/11/24 11:27:32;;;;;;;30.25;19.50;;;7.00;99.90;;;;;;5002055;28;20037;-66
2022/11/24 11:30:21;;;;;;;32.58;21.00;;;7.00;99.90;;;;;;4999356;28;20026;-69
2022/11/24 11:32:56;;;;;;;31.52;20.73;;;7.10;99.90;;;;;;5008645;28;20117;-69
2022/11/24 11:35:32;;;;;;;33.53;20.80;;;7.10;99.90;;;;;;5012458;28;20054;-69
2022/11/24 11:38:05;;;;;;;38.00;21.50;;;7.20;99.90;;;;;;5001864;28;20109;-69
2022/11/24 11:40:31;;;;;;;36.70;22.25;;;7.30;99.90;;;;;;5012143;28;20034;-69
2022/11/24 11:43:02;;;;;;;36.35;23.08;;;7.30;99.90;;;;;;5010711;28;20470;-68
2022/11/24 11:45:34;;;;;;;28.75;20.70;;;7.40;99.90;;;;;;5013175;28;20081;-68
2022/11/24 11:47:59;;;;;;;33.00;20.55;;;7.50;99.90;;;;;;5007534;28;20536;-68
2022/11/24 11:50:51;;;;;;;34.92;21.85;;;7.50;99.90;;;;;;5001338;28;20036;-69
2022/11/24 11:53:35;;;;;;;32.65;20.77;;;7.60;99.90;;;;;;4998284;28;20065;-68
2022/11/24 11:56:12;;;;;;;31.83;20.10;;;7.60;99.90;;;;;;5003411;28;20046;-68
2022/11/24 11:59:03;;;;;;;30.67;19.55;;;7.60;99.90;;;;;;5000252;28;20323;-68
2022/11/24 12:02:03;;;;;;;33.97;21.15;;;7.60;99.90;;;;;;5001989;28;20038;-68
2022/11/24 12:04:58;;;;;;;33.22;22.05;;;7.60;99.90;;;;;;5012735;28;20087;-68
2022/11/24 12:08:02;;;;;;;32.58;21.55;;;7.60;99.90;;;;;;5011527;28;20029;-68
2022/11/24 12:10:37;;;;;;;31.52;20.60;;;7.60;99.90;;;;;;5018250;28;20041;-68
2022/11/24 12:13:29;;;;;;;;;;;7.60;99.90;;;;;;5012479;28;20030;-68
2022/11/24 12:16:03;;;;;;;28.02;19.95;;;7.60;99.90;;;;;;5012197;28;19913;-68
2022/11/24 12:18:48;;;;;;;27.88;20.00;;;7.50;99.90;;;;;;5010750;28;20044;-68
2022/11/24 12:21:35;;;;;;;33.60;19.95;;;7.60;99.90;;;;;;5012512;28;20223;-68
2022/11/24 12:24:30;;;;;;;29.65;20.02;;;7.60;99.90;;;;;;5011430;28;20033;-68
2022/11/24 12:27:03;;;;;;;30.08;20.20;;;7.60;99.90;;;;;;5014872;28;20048;-68
2022/11/24 12:30:06;;;;;;;30.88;21.13;;;7.70;99.90;;;;;;5012646;28;20116;-67
2022/11/24 12:32:32;;;;;;;34.28;20.00;;;7.70;99.90;;;;;;5008463;28;20088;-68
2022/11/24 12:35:09;;;;;;;29.25;21.35;;;7.70;99.90;;;;;;5026736;28;20046;-69
2022/11/24 12:37:54;;;;;;;33.35;20.27;;;7.70;99.90;;;;;;5029969;28;20021;-69
2022/11/24 12:40:39;;;;;;;30.63;19.60;;;7.70;99.90;;;;;;5010962;28;20030;-70
2022/11/24 12:43:17;;;;;;;;;;;7.80;99.90;;;;;;5014107;28;20030;-70
2022/11/24 12:46:14;;;;;;;28.40;20.05;;;7.80;99.90;;;;;;5011679;28;19909;-70
2022/11/24 12:48:51;;;;;;;29.73;19.45;;;7.80;99.90;;;;;;5010369;28;20034;-69
2022/11/24 12:51:19;;;;;;;25.80;18.55;;;7.90;99.90;;;;;;5012623;28;20026;-69
2022/11/24 12:53:51;;;;;;;27.48;18.65;;;7.90;99.90;;;;;;5011920;28;20026;-71